EWG2CA EDDS-EDDH
Flight info
| Callsign | EWG2CA |
|---|---|
| Flight time | 0h 58m |
| Altitude | 35000 |
| Route | OKIBA4H/07 OKIBA N851 RIMKI Z99 LOHRE DCT MASEK DCT ELNAT/N0438F340 P605 NOLGO NOLGO3P |
| Aircraft | A320/M-SDE3FGHIRWY/LB1 |
Departure
| Time | 2026-04-23 16:15 |
|---|---|
| Airport | Stuttgart Airport (EDDS) |
Arrival
| Time | 2026-04-23 17:13 |
|---|---|
| Airport | Hamburg Helmut Schmidt Airport (EDDH) |
| Time | Latitude | Longitude | Altitude | Speed | Heading |
|---|---|---|---|---|---|
| 2026-04-23 15:58 | 48.68897 | 9.19428 | 1316 ft | 0 kts | 344° |
| 2026-04-23 16:09 | 48.68895 | 9.19429 | 1315 ft | 2 kts | 344° |
| 2026-04-23 16:09 | 48.68870 | 9.19440 | 1314 ft | 4 kts | 344° |
| 2026-04-23 16:09 | 48.68849 | 9.19449 | 1313 ft | 4 kts | 348° |
| 2026-04-23 16:09 | 48.68826 | 9.19447 | 1312 ft | 4 kts | 42° |
| 2026-04-23 16:10 | 48.68814 | 9.19419 | 1313 ft | 1 kts | 74° |
| 2026-04-23 16:10 | 48.68813 | 9.19418 | 1313 ft | 0 kts | 74° |
| 2026-04-23 16:12 | 48.68819 | 9.19450 | 1312 ft | 11 kts | 74° |
| 2026-04-23 16:12 | 48.68847 | 9.19598 | 1309 ft | 16 kts | 74° |
| 2026-04-23 16:12 | 48.68881 | 9.19780 | 1305 ft | 20 kts | 75° |
| 2026-04-23 16:13 | 48.68828 | 9.19913 | 1298 ft | 11 kts | 159° |
| 2026-04-23 16:13 | 48.68647 | 9.20001 | 1288 ft | 16 kts | 164° |
| 2026-04-23 16:13 | 48.68581 | 9.20048 | 1284 ft | 8 kts | 112° |
| 2026-04-23 16:14 | 48.68594 | 9.20119 | 1283 ft | 7 kts | 73° |
| 2026-04-23 16:14 | 48.68613 | 9.20214 | 1280 ft | 17 kts | 74° |
| 2026-04-23 16:14 | 48.68707 | 9.20710 | 1271 ft | 92 kts | 73° |
| 2026-04-23 16:14 | 48.68961 | 9.22052 | 1243 ft | 167 kts | 73° |
| 2026-04-23 16:15 | 48.69300 | 9.23816 | 1846 ft | 182 kts | 71° |
| 2026-04-23 16:15 | 48.69667 | 9.25771 | 2351 ft | 203 kts | 72° |
| 2026-04-23 16:15 | 48.70072 | 9.27937 | 2553 ft | 225 kts | 71° |
| 2026-04-23 16:15 | 48.70512 | 9.30292 | 2715 ft | 245 kts | 72° |
| 2026-04-23 16:16 | 48.70997 | 9.32894 | 3044 ft | 258 kts | 72° |
| 2026-04-23 16:16 | 48.71492 | 9.35528 | 3576 ft | 262 kts | 71° |
| 2026-04-23 16:16 | 48.71993 | 9.38190 | 4122 ft | 263 kts | 72° |
| 2026-04-23 16:16 | 48.72496 | 9.40851 | 4676 ft | 263 kts | 72° |
| 2026-04-23 16:17 | 48.73001 | 9.43514 | 5240 ft | 263 kts | 72° |
| 2026-04-23 16:17 | 48.73228 | 9.44712 | 5451 ft | 264 kts | 72° |
| 2026-04-23 16:17 | 48.73527 | 9.46287 | 5773 ft | 266 kts | 71° |
| 2026-04-23 16:17 | 48.73713 | 9.47285 | 5967 ft | 266 kts | 72° |
| 2026-04-23 16:18 | 48.74533 | 9.49780 | 6431 ft | 266 kts | 49° |
| 2026-04-23 16:18 | 48.75936 | 9.51581 | 6898 ft | 266 kts | 27° |
| 2026-04-23 16:18 | 48.77694 | 9.52433 | 7344 ft | 268 kts | 5° |
| 2026-04-23 16:18 | 48.79567 | 9.52448 | 7787 ft | 270 kts | 360° |
| 2026-04-23 16:19 | 48.81452 | 9.52401 | 8272 ft | 272 kts | 359° |
| 2026-04-23 16:19 | 48.83348 | 9.52345 | 8716 ft | 273 kts | 359° |
| 2026-04-23 16:19 | 48.85253 | 9.52286 | 9158 ft | 275 kts | 359° |
| 2026-04-23 16:19 | 48.87173 | 9.52222 | 9584 ft | 277 kts | 359° |
| 2026-04-23 16:20 | 48.89101 | 9.52163 | 10016 ft | 278 kts | 360° |
| 2026-04-23 16:20 | 48.91050 | 9.52108 | 10370 ft | 282 kts | 360° |
| 2026-04-23 16:20 | 48.93028 | 9.52051 | 10591 ft | 290 kts | 359° |
| 2026-04-23 16:20 | 48.95078 | 9.51993 | 10717 ft | 299 kts | 359° |
| 2026-04-23 16:21 | 48.97189 | 9.51933 | 10843 ft | 307 kts | 359° |
| 2026-04-23 16:21 | 48.99346 | 9.51870 | 10972 ft | 313 kts | 359° |
| 2026-04-23 16:21 | 49.01539 | 9.51803 | 11158 ft | 316 kts | 359° |
| 2026-04-23 16:21 | 49.03736 | 9.51734 | 11385 ft | 317 kts | 359° |
| 2026-04-23 16:22 | 49.05955 | 9.51665 | 11608 ft | 319 kts | 359° |
| 2026-04-23 16:22 | 49.08174 | 9.51600 | 11834 ft | 319 kts | 359° |
| 2026-04-23 16:22 | 49.10400 | 9.51536 | 12066 ft | 320 kts | 359° |
| 2026-04-23 16:22 | 49.12630 | 9.51470 | 12289 ft | 321 kts | 359° |
| 2026-04-23 16:23 | 49.14865 | 9.51403 | 12527 ft | 320 kts | 359° |
| 2026-04-23 16:23 | 49.17100 | 9.51333 | 12723 ft | 322 kts | 359° |
| 2026-04-23 16:23 | 49.19347 | 9.51264 | 12903 ft | 324 kts | 359° |
| 2026-04-23 16:23 | 49.21598 | 9.51199 | 13219 ft | 319 kts | 359° |
| 2026-04-23 16:24 | 49.23737 | 9.51138 | 14142 ft | 296 kts | 359° |
| 2026-04-23 16:24 | 49.25720 | 9.51079 | 15163 ft | 274 kts | 0° |
| 2026-04-23 16:24 | 49.27588 | 9.51025 | 16187 ft | 265 kts | 1° |
| 2026-04-23 16:24 | 49.29510 | 9.50974 | 16329 ft | 287 kts | 1° |
| 2026-04-23 16:25 | 49.31548 | 9.50919 | 16462 ft | 307 kts | 1° |
| 2026-04-23 16:25 | 49.33787 | 9.50858 | 16597 ft | 327 kts | 0° |
| 2026-04-23 16:25 | 49.36088 | 9.50795 | 16722 ft | 344 kts | 0° |
| 2026-04-23 16:25 | 49.38558 | 9.50720 | 17104 ft | 354 kts | 0° |
| 2026-04-23 16:26 | 49.41032 | 9.50640 | 17674 ft | 358 kts | 0° |
| 2026-04-23 16:26 | 49.43536 | 9.50560 | 18261 ft | 361 kts | 0° |
| 2026-04-23 16:26 | 49.46061 | 9.50480 | 18808 ft | 365 kts | 1° |
| 2026-04-23 16:26 | 49.48617 | 9.50400 | 19328 ft | 368 kts | 1° |
| 2026-04-23 16:27 | 49.51180 | 9.50320 | 19858 ft | 371 kts | 1° |
| 2026-04-23 16:27 | 49.53770 | 9.50238 | 20383 ft | 374 kts | 1° |
| 2026-04-23 16:27 | 49.56378 | 9.50157 | 20901 ft | 376 kts | 1° |
| 2026-04-23 16:27 | 49.59008 | 9.50077 | 21413 ft | 379 kts | 1° |
| 2026-04-23 16:28 | 49.61657 | 9.50001 | 21933 ft | 382 kts | 1° |
| 2026-04-23 16:28 | 49.64326 | 9.49925 | 22443 ft | 385 kts | 1° |
| 2026-04-23 16:28 | 49.67016 | 9.49848 | 22946 ft | 388 kts | 1° |
| 2026-04-23 16:28 | 49.69728 | 9.49769 | 23418 ft | 392 kts | 1° |
| 2026-04-23 16:29 | 49.72469 | 9.49686 | 23837 ft | 396 kts | 1° |
| 2026-04-23 16:29 | 49.75234 | 9.49599 | 24169 ft | 400 kts | 1° |
| 2026-04-23 16:29 | 49.78017 | 9.49515 | 24258 ft | 400 kts | 1° |
| 2026-04-23 16:29 | 49.80800 | 9.49430 | 24274 ft | 400 kts | 1° |
| 2026-04-23 16:30 | 49.82642 | 9.49373 | 24274 ft | 399 kts | 1° |
| 2026-04-23 16:30 | 49.86357 | 9.49254 | 24278 ft | 399 kts | 1° |
| 2026-04-23 16:30 | 49.88197 | 9.49197 | 24277 ft | 399 kts | 1° |
| 2026-04-23 16:30 | 49.90939 | 9.49117 | 24286 ft | 400 kts | 1° |
| 2026-04-23 16:31 | 49.93767 | 9.49033 | 24682 ft | 403 kts | 1° |
| 2026-04-23 16:31 | 49.96575 | 9.48947 | 25076 ft | 405 kts | 2° |
| 2026-04-23 16:31 | 49.99401 | 9.48862 | 25454 ft | 407 kts | 2° |
| 2026-04-23 16:31 | 50.02242 | 9.48774 | 25821 ft | 410 kts | 2° |
| 2026-04-23 16:32 | 50.05097 | 9.48686 | 26171 ft | 412 kts | 2° |
| 2026-04-23 16:32 | 50.07963 | 9.48835 | 26512 ft | 412 kts | 9° |
| 2026-04-23 16:32 | 50.10822 | 9.49309 | 26859 ft | 414 kts | 9° |
| 2026-04-23 16:32 | 50.13691 | 9.49792 | 27193 ft | 416 kts | 9° |
| 2026-04-23 16:33 | 50.16578 | 9.50282 | 27522 ft | 418 kts | 9° |
| 2026-04-23 16:33 | 50.19482 | 9.50772 | 27862 ft | 421 kts | 9° |
| 2026-04-23 16:33 | 50.22397 | 9.51262 | 28190 ft | 423 kts | 9° |
| 2026-04-23 16:33 | 50.25333 | 9.51755 | 28531 ft | 425 kts | 9° |
| 2026-04-23 16:34 | 50.28277 | 9.52251 | 28848 ft | 427 kts | 9° |
| 2026-04-23 16:34 | 50.31239 | 9.52751 | 29163 ft | 429 kts | 9° |
| 2026-04-23 16:34 | 50.34211 | 9.53251 | 29465 ft | 431 kts | 9° |
| 2026-04-23 16:34 | 50.37198 | 9.53756 | 29750 ft | 433 kts | 9° |
| 2026-04-23 16:35 | 50.40204 | 9.54263 | 30028 ft | 435 kts | 9° |
| 2026-04-23 16:35 | 50.43222 | 9.54772 | 30310 ft | 437 kts | 9° |
| 2026-04-23 16:35 | 50.46250 | 9.55283 | 30545 ft | 439 kts | 9° |
| 2026-04-23 16:35 | 50.49295 | 9.55798 | 30772 ft | 441 kts | 9° |
| 2026-04-23 16:36 | 50.52388 | 9.56328 | 30994 ft | 442 kts | 9° |
| 2026-04-23 16:36 | 50.55412 | 9.56849 | 31200 ft | 444 kts | 9° |
| 2026-04-23 16:36 | 50.58489 | 9.57378 | 31417 ft | 445 kts | 9° |
| 2026-04-23 16:36 | 50.61569 | 9.57905 | 31710 ft | 445 kts | 9° |
| 2026-04-23 16:37 | 50.64644 | 9.58424 | 32013 ft | 444 kts | 9° |
| 2026-04-23 16:37 | 50.67713 | 9.58941 | 32312 ft | 443 kts | 9° |
| 2026-04-23 16:37 | 50.70779 | 9.59461 | 32610 ft | 443 kts | 9° |
| 2026-04-23 16:37 | 50.73839 | 9.59984 | 32901 ft | 442 kts | 10° |
| 2026-04-23 16:38 | 50.76891 | 9.60536 | 33190 ft | 441 kts | 10° |
| 2026-04-23 16:38 | 50.79938 | 9.61124 | 33473 ft | 441 kts | 11° |
| 2026-04-23 16:38 | 50.82981 | 9.61731 | 33748 ft | 440 kts | 11° |
| 2026-04-23 16:38 | 50.86021 | 9.62342 | 34036 ft | 440 kts | 11° |
| 2026-04-23 16:39 | 50.89059 | 9.62950 | 34321 ft | 440 kts | 11° |
| 2026-04-23 16:39 | 50.92092 | 9.63549 | 34566 ft | 439 kts | 11° |
| 2026-04-23 16:39 | 50.95123 | 9.64143 | 34816 ft | 439 kts | 10° |
| 2026-04-23 16:39 | 50.98150 | 9.64731 | 35071 ft | 438 kts | 10° |
| 2026-04-23 16:40 | 51.01176 | 9.65318 | 35244 ft | 438 kts | 10° |
| 2026-04-23 16:40 | 51.04185 | 9.65902 | 35287 ft | 434 kts | 10° |
| 2026-04-23 16:40 | 51.10149 | 9.67075 | 35287 ft | 431 kts | 10° |
| 2026-04-23 16:41 | 51.16103 | 9.68275 | 35287 ft | 430 kts | 11° |
| 2026-04-23 16:41 | 51.22003 | 9.69754 | 35285 ft | 429 kts | 13° |
| 2026-04-23 16:42 | 51.27879 | 9.71370 | 35284 ft | 428 kts | 13° |
| 2026-04-23 16:42 | 51.33756 | 9.72945 | 35292 ft | 428 kts | 12° |
| 2026-04-23 16:43 | 51.39641 | 9.74477 | 35291 ft | 428 kts | 12° |
| 2026-04-23 16:43 | 51.45490 | 9.75996 | 35291 ft | 421 kts | 12° |
| 2026-04-23 16:44 | 51.51260 | 9.77501 | 35288 ft | 419 kts | 12° |
| 2026-04-23 16:44 | 51.57048 | 9.79032 | 35287 ft | 419 kts | 12° |
| 2026-04-23 16:45 | 51.62798 | 9.80562 | 35282 ft | 419 kts | 12° |
| 2026-04-23 16:45 | 51.68550 | 9.82087 | 35275 ft | 419 kts | 12° |
| 2026-04-23 16:46 | 51.74295 | 9.83614 | 35272 ft | 419 kts | 12° |
| 2026-04-23 16:46 | 51.79999 | 9.85130 | 35270 ft | 418 kts | 12° |
| 2026-04-23 16:47 | 51.85788 | 9.86678 | 35266 ft | 418 kts | 12° |
| 2026-04-23 16:47 | 51.91527 | 9.88212 | 35258 ft | 418 kts | 12° |
| 2026-04-23 16:48 | 51.97274 | 9.89753 | 35259 ft | 418 kts | 12° |
| 2026-04-23 16:48 | 52.03022 | 9.91299 | 35215 ft | 420 kts | 12° |
| 2026-04-23 16:49 | 52.04930 | 9.91816 | 35045 ft | 420 kts | 12° |
| 2026-04-23 16:49 | 52.08799 | 9.92870 | 34312 ft | 423 kts | 12° |
| 2026-04-23 16:49 | 52.11704 | 9.93658 | 33692 ft | 423 kts | 12° |
| 2026-04-23 16:49 | 52.14289 | 9.94355 | 33178 ft | 420 kts | 12° |
| 2026-04-23 16:50 | 52.17106 | 9.95119 | 32736 ft | 416 kts | 12° |
| 2026-04-23 16:50 | 52.19950 | 9.95887 | 32296 ft | 413 kts | 12° |
| 2026-04-23 16:50 | 52.22769 | 9.96651 | 31859 ft | 409 kts | 12° |
| 2026-04-23 16:50 | 52.25569 | 9.97414 | 31436 ft | 406 kts | 12° |
| 2026-04-23 16:51 | 52.28341 | 9.98172 | 31018 ft | 403 kts | 12° |
| 2026-04-23 16:51 | 52.31102 | 9.98929 | 30604 ft | 400 kts | 12° |
| 2026-04-23 16:51 | 52.33839 | 9.99677 | 30172 ft | 398 kts | 12° |
| 2026-04-23 16:51 | 52.36557 | 10.00421 | 29686 ft | 394 kts | 11° |
| 2026-04-23 16:52 | 52.39251 | 10.01160 | 29215 ft | 391 kts | 11° |
| 2026-04-23 16:52 | 52.41927 | 10.01894 | 28752 ft | 388 kts | 11° |
| 2026-04-23 16:52 | 52.44583 | 10.02622 | 28297 ft | 385 kts | 11° |
| 2026-04-23 16:52 | 52.47218 | 10.03341 | 27849 ft | 382 kts | 11° |
| 2026-04-23 16:53 | 52.49618 | 10.03997 | 27445 ft | 380 kts | 11° |
| 2026-04-23 16:53 | 52.52213 | 10.04714 | 27011 ft | 377 kts | 11° |
| 2026-04-23 16:53 | 52.54794 | 10.05426 | 26580 ft | 375 kts | 11° |
| 2026-04-23 16:53 | 52.57359 | 10.06134 | 26159 ft | 372 kts | 11° |
| 2026-04-23 16:54 | 52.59905 | 10.06837 | 25741 ft | 370 kts | 11° |
| 2026-04-23 16:54 | 52.62434 | 10.07537 | 25331 ft | 367 kts | 10° |
| 2026-04-23 16:54 | 52.64945 | 10.08232 | 24928 ft | 365 kts | 11° |
| 2026-04-23 16:54 | 52.67439 | 10.08923 | 24529 ft | 362 kts | 10° |
| 2026-04-23 16:55 | 52.69921 | 10.09613 | 24135 ft | 361 kts | 10° |
| 2026-04-23 16:55 | 52.72389 | 10.10299 | 23729 ft | 359 kts | 10° |
| 2026-04-23 16:55 | 52.74842 | 10.10979 | 23263 ft | 356 kts | 10° |
| 2026-04-23 16:55 | 52.77278 | 10.11639 | 22809 ft | 354 kts | 7° |
| 2026-04-23 16:56 | 52.79727 | 10.11849 | 22364 ft | 352 kts | 2° |
| 2026-04-23 16:56 | 52.82167 | 10.11927 | 21924 ft | 349 kts | 2° |
| 2026-04-23 16:56 | 52.84587 | 10.12003 | 21484 ft | 347 kts | 1° |
| 2026-04-23 16:56 | 52.87000 | 10.12078 | 21048 ft | 346 kts | 1° |
| 2026-04-23 16:57 | 52.89396 | 10.12155 | 20628 ft | 343 kts | 1° |
| 2026-04-23 16:57 | 52.91778 | 10.12235 | 20211 ft | 341 kts | 1° |
| 2026-04-23 16:57 | 52.94147 | 10.12320 | 19801 ft | 340 kts | 1° |
| 2026-04-23 16:57 | 52.96483 | 10.12737 | 19386 ft | 337 kts | 11° |
| 2026-04-23 16:58 | 52.98782 | 10.13480 | 18996 ft | 335 kts | 11° |
| 2026-04-23 16:58 | 53.01067 | 10.14214 | 18601 ft | 334 kts | 11° |
| 2026-04-23 16:58 | 53.03341 | 10.14963 | 18148 ft | 332 kts | 11° |
| 2026-04-23 16:58 | 53.05604 | 10.15702 | 17699 ft | 331 kts | 10° |
| 2026-04-23 16:59 | 53.07857 | 10.16426 | 17256 ft | 329 kts | 10° |
| 2026-04-23 16:59 | 53.10103 | 10.17149 | 16822 ft | 328 kts | 10° |
| 2026-04-23 16:59 | 53.12339 | 10.17871 | 16393 ft | 327 kts | 10° |
| 2026-04-23 16:59 | 53.14568 | 10.18593 | 15958 ft | 326 kts | 10° |
| 2026-04-23 17:00 | 53.16792 | 10.19311 | 15551 ft | 325 kts | 10° |
| 2026-04-23 17:00 | 53.19008 | 10.20029 | 15139 ft | 324 kts | 9° |
| 2026-04-23 17:00 | 53.21213 | 10.20749 | 14734 ft | 322 kts | 10° |
| 2026-04-23 17:00 | 53.23379 | 10.21459 | 14339 ft | 321 kts | 9° |
| 2026-04-23 17:01 | 53.24858 | 10.21945 | 13977 ft | 322 kts | 9° |
| 2026-04-23 17:01 | 53.26379 | 10.22444 | 13515 ft | 320 kts | 9° |
| 2026-04-23 17:01 | 53.28534 | 10.23154 | 12866 ft | 311 kts | 9° |
| 2026-04-23 17:01 | 53.30631 | 10.23845 | 12283 ft | 302 kts | 9° |
| 2026-04-23 17:02 | 53.32007 | 10.24299 | 12045 ft | 297 kts | 9° |
| 2026-04-23 17:02 | 53.34680 | 10.25176 | 11552 ft | 294 kts | 9° |
| 2026-04-23 17:02 | 53.36678 | 10.25831 | 11185 ft | 291 kts | 9° |
| 2026-04-23 17:02 | 53.38659 | 10.26482 | 10823 ft | 289 kts | 9° |
| 2026-04-23 17:03 | 53.40651 | 10.27137 | 10462 ft | 287 kts | 9° |
| 2026-04-23 17:03 | 53.42601 | 10.27781 | 10100 ft | 284 kts | 9° |
| 2026-04-23 17:03 | 53.44535 | 10.28421 | 9706 ft | 282 kts | 9° |
| 2026-04-23 17:03 | 53.46454 | 10.29056 | 9315 ft | 280 kts | 9° |
| 2026-04-23 17:04 | 53.48354 | 10.29683 | 8923 ft | 277 kts | 9° |
| 2026-04-23 17:04 | 53.50237 | 10.30304 | 8544 ft | 274 kts | 9° |
| 2026-04-23 17:04 | 53.52075 | 10.30910 | 8161 ft | 264 kts | 9° |
| 2026-04-23 17:04 | 53.53858 | 10.31498 | 7789 ft | 259 kts | 9° |
| 2026-04-23 17:05 | 53.55580 | 10.32060 | 7427 ft | 250 kts | 8° |
| 2026-04-23 17:05 | 53.57268 | 10.32616 | 7054 ft | 238 kts | 8° |
| 2026-04-23 17:05 | 53.58857 | 10.33148 | 6690 ft | 228 kts | 8° |
| 2026-04-23 17:05 | 53.60389 | 10.33668 | 6301 ft | 223 kts | 8° |
| 2026-04-23 17:06 | 53.61912 | 10.34187 | 5922 ft | 224 kts | 8° |
| 2026-04-23 17:06 | 53.63437 | 10.34711 | 5542 ft | 223 kts | 8° |
| 2026-04-23 17:06 | 53.64959 | 10.35239 | 5171 ft | 223 kts | 8° |
| 2026-04-23 17:06 | 53.66474 | 10.35760 | 4779 ft | 220 kts | 8° |
| 2026-04-23 17:07 | 53.67962 | 10.35813 | 4390 ft | 212 kts | 342° |
| 2026-04-23 17:07 | 53.69264 | 10.34670 | 4014 ft | 212 kts | 326° |
| 2026-04-23 17:07 | 53.70469 | 10.33236 | 3630 ft | 211 kts | 324° |
| 2026-04-23 17:07 | 53.71647 | 10.31784 | 3410 ft | 209 kts | 324° |
| 2026-04-23 17:08 | 53.72828 | 10.30323 | 3274 ft | 210 kts | 324° |
| 2026-04-23 17:08 | 53.73932 | 10.28724 | 3125 ft | 210 kts | 307° |
| 2026-04-23 17:08 | 53.74389 | 10.26433 | 3029 ft | 208 kts | 274° |
| 2026-04-23 17:08 | 53.74240 | 10.24036 | 2996 ft | 204 kts | 265° |
| 2026-04-23 17:09 | 53.73991 | 10.21690 | 3003 ft | 202 kts | 264° |
| 2026-04-23 17:09 | 53.73499 | 10.19449 | 2996 ft | 210 kts | 241° |
| 2026-04-23 17:09 | 53.72799 | 10.18237 | 2868 ft | 216 kts | 225° |
| 2026-04-23 17:09 | 53.71720 | 10.16515 | 2610 ft | 211 kts | 235° |
| 2026-04-23 17:10 | 53.70804 | 10.14649 | 2337 ft | 202 kts | 237° |
| 2026-04-23 17:10 | 53.69939 | 10.12870 | 2069 ft | 190 kts | 237° |
| 2026-04-23 17:10 | 53.69123 | 10.11205 | 1808 ft | 178 kts | 237° |
| 2026-04-23 17:10 | 53.68360 | 10.09655 | 1561 ft | 167 kts | 237° |
| 2026-04-23 17:11 | 53.67639 | 10.08186 | 1344 ft | 158 kts | 238° |
| 2026-04-23 17:11 | 53.66961 | 10.06803 | 1132 ft | 151 kts | 237° |
| 2026-04-23 17:11 | 53.66307 | 10.05472 | 932 ft | 142 kts | 236° |
| 2026-04-23 17:11 | 53.65690 | 10.04219 | 750 ft | 136 kts | 237° |
| 2026-04-23 17:12 | 53.65085 | 10.02989 | 593 ft | 135 kts | 237° |
| 2026-04-23 17:12 | 53.64486 | 10.01772 | 364 ft | 135 kts | 234° |
| 2026-04-23 17:12 | 53.63890 | 10.00553 | 164 ft | 134 kts | 236° |
| 2026-04-23 17:12 | 53.63300 | 9.99371 | 53 ft | 129 kts | 235° |
| 2026-04-23 17:13 | 53.62889 | 9.98510 | 49 ft | 71 kts | 230° |
| 2026-04-23 17:13 | 53.62657 | 9.98041 | 49 ft | 42 kts | 228° |
| 2026-04-23 17:13 | 53.62537 | 9.97825 | 47 ft | 16 kts | 216° |
| 2026-04-23 17:13 | 53.62446 | 9.97836 | 49 ft | 11 kts | 141° |
| 2026-04-23 17:14 | 53.62431 | 9.97934 | 50 ft | 8 kts | 81° |
| 2026-04-23 17:14 | 53.62443 | 9.98014 | 49 ft | 7 kts | 70° |
| 2026-04-23 17:14 | 53.62489 | 9.98146 | 50 ft | 18 kts | 51° |
| 2026-04-23 17:14 | 53.62563 | 9.98297 | 50 ft | 16 kts | 51° |
| 2026-04-23 17:15 | 53.62630 | 9.98431 | 50 ft | 14 kts | 50° |
| 2026-04-23 17:15 | 53.62691 | 9.98554 | 50 ft | 13 kts | 50° |
| 2026-04-23 17:15 | 53.62746 | 9.98666 | 50 ft | 12 kts | 50° |
| 2026-04-23 17:15 | 53.62796 | 9.98770 | 50 ft | 11 kts | 51° |
| 2026-04-23 17:16 | 53.62852 | 9.98880 | 50 ft | 15 kts | 51° |
| 2026-04-23 17:16 | 53.62917 | 9.99013 | 50 ft | 14 kts | 50° |
| 2026-04-23 17:16 | 53.62978 | 9.99134 | 50 ft | 13 kts | 50° |
| 2026-04-23 17:16 | 53.63032 | 9.99246 | 50 ft | 12 kts | 51° |
| 2026-04-23 17:17 | 53.63077 | 9.99350 | 50 ft | 7 kts | 55° |
| 2026-04-23 17:17 | 53.63080 | 9.99356 | 50 ft | 0 kts | 55° |
| 2026-04-23 17:18 | 53.63143 | 9.99508 | 50 ft | 10 kts | 53° |
| 2026-04-23 17:18 | 53.63181 | 9.99588 | 49 ft | 5 kts | 50° |
| 2026-04-23 17:18 | 53.63199 | 9.99623 | 50 ft | 3 kts | 50° |
| 2026-04-23 17:19 | 53.63212 | 9.99650 | 50 ft | 4 kts | 50° |
| 2026-04-23 17:19 | 53.63235 | 9.99704 | 50 ft | 6 kts | 80° |
| 2026-04-23 17:19 | 53.63198 | 9.99780 | 50 ft | 10 kts | 152° |
| 2026-04-23 17:19 | 53.63140 | 9.99832 | 50 ft | 9 kts | 151° |
| 2026-04-23 17:20 | 53.63122 | 9.99908 | 50 ft | 7 kts | 75° |
| 2026-04-23 17:20 | 53.63204 | 10.00086 | 51 ft | 10 kts | 55° |
| 2026-04-23 17:21 | 53.63176 | 10.00186 | 51 ft | 7 kts | 154° |
| 2026-04-23 17:21 | 53.63164 | 10.00247 | 51 ft | 5 kts | 81° |
| 2026-04-23 17:21 | 53.63169 | 10.00356 | 51 ft | 2 kts | 86° |
| 2026-04-23 17:22 | 53.63169 | 10.00366 | 51 ft | 0 kts | 87° |